sensor_id;sensor_type;location;lat;lon;timestamp;temperature;humidity
4435;DHT22;46552;52.150;8.428;2022-08-19T00:02:00;20.70;99.90
4435;DHT22;46552;52.150;8.428;2022-08-19T00:04:29;20.70;99.90
4435;DHT22;46552;52.150;8.428;2022-08-19T00:06:57;20.70;99.90
4435;DHT22;46552;52.150;8.428;2022-08-19T00:09:26;20.70;99.90
4435;DHT22;46552;52.150;8.428;2022-08-19T00:11:57;20.70;99.90
4435;DHT22;46552;52.150;8.428;2022-08-19T00:14:27;20.60;99.90
4435;DHT22;46552;52.150;8.428;2022-08-19T00:16:56;20.70;99.90
4435;DHT22;46552;52.150;8.428;2022-08-19T00:19:25;20.70;99.90
4435;DHT22;46552;52.150;8.428;2022-08-19T00:21:52;20.60;99.90
4435;DHT22;46552;52.150;8.428;2022-08-19T00:24:22;20.50;99.90
4435;DHT22;46552;52.150;8.428;2022-08-19T00:26:49;20.50;99.90
4435;DHT22;46552;52.150;8.428;2022-08-19T00:29:20;20.40;99.90
4435;DHT22;46552;52.150;8.428;2022-08-19T00:31:50;20.40;99.90
4435;DHT22;46552;52.150;8.428;2022-08-19T00:34:19;20.40;99.90
4435;DHT22;46552;52.150;8.428;2022-08-19T00:36:46;20.30;99.90
4435;DHT22;46552;52.150;8.428;2022-08-19T00:39:15;20.20;99.90
4435;DHT22;46552;52.150;8.428;2022-08-19T00:41:43;20.20;99.90
4435;DHT22;46552;52.150;8.428;2022-08-19T00:44:14;20.10;99.90
4435;DHT22;46552;52.150;8.428;2022-08-19T00:46:44;20.10;99.90
4435;DHT22;46552;52.150;8.428;2022-08-19T00:49:16;20.10;99.90
4435;DHT22;46552;52.150;8.428;2022-08-19T00:51:47;20.00;99.90
4435;DHT22;46552;52.150;8.428;2022-08-19T00:54:15;20.00;99.90
4435;DHT22;46552;52.150;8.428;2022-08-19T00:56:45;20.00;99.90
4435;DHT22;46552;52.150;8.428;2022-08-19T00:59:13;19.90;99.90
4435;DHT22;46552;52.150;8.428;2022-08-19T01:01:43;19.90;99.90
4435;DHT22;46552;52.150;8.428;2022-08-19T01:04:13;19.90;99.90
4435;DHT22;46552;52.150;8.428;2022-08-19T01:06:41;19.80;99.90
4435;DHT22;46552;52.150;8.428;2022-08-19T01:09:09;19.80;99.90
4435;DHT22;46552;52.150;8.428;2022-08-19T01:11:38;19.70;99.90
4435;DHT22;46552;52.150;8.428;2022-08-19T01:14:08;19.60;99.90
4435;DHT22;46552;52.150;8.428;2022-08-19T01:16:37;19.50;99.90
4435;DHT22;46552;52.150;8.428;2022-08-19T01:19:11;19.50;99.90
4435;DHT22;46552;52.150;8.428;2022-08-19T01:21:43;19.60;99.90
4435;DHT22;46552;52.150;8.428;2022-08-19T01:24:14;19.60;99.90
4435;DHT22;46552;52.150;8.428;2022-08-19T01:26:43;19.60;99.90
4435;DHT22;46552;52.150;8.428;2022-08-19T01:29:11;19.60;99.90
4435;DHT22;46552;52.150;8.428;2022-08-19T01:31:38;19.60;99.90
4435;DHT22;46552;52.150;8.428;2022-08-19T01:34:07;19.60;99.90
4435;DHT22;46552;52.150;8.428;2022-08-19T01:36:37;19.50;99.90
4435;DHT22;46552;52.150;8.428;2022-08-19T01:39:10;19.40;99.90
4435;DHT22;46552;52.150;8.428;2022-08-19T01:41:39;19.40;99.90
4435;DHT22;46552;52.150;8.428;2022-08-19T01:44:07;19.40;99.90
4435;DHT22;46552;52.150;8.428;2022-08-19T01:46:34;19.40;99.90
4435;DHT22;46552;52.150;8.428;2022-08-19T01:49:03;19.40;99.90
4435;DHT22;46552;52.150;8.428;2022-08-19T01:51:31;19.40;99.90
4435;DHT22;46552;52.150;8.428;2022-08-19T01:53:58;19.40;99.90
4435;DHT22;46552;52.150;8.428;2022-08-19T01:56:26;19.40;99.90
4435;DHT22;46552;52.150;8.428;2022-08-19T01:58:57;19.40;99.90
4435;DHT22;46552;52.150;8.428;2022-08-19T02:01:27;19.40;99.90
4435;DHT22;46552;52.150;8.428;2022-08-19T02:03:57;19.30;99.90
4435;DHT22;46552;52.150;8.428;2022-08-19T02:06:26;19.30;99.90
4435;DHT22;46552;52.150;8.428;2022-08-19T02:08:54;19.20;99.90
4435;DHT22;46552;52.150;8.428;2022-08-19T02:11:23;19.10;99.90
4435;DHT22;46552;52.150;8.428;2022-08-19T02:13:52;19.10;99.90
4435;DHT22;46552;52.150;8.428;2022-08-19T02:16:21;19.10;99.90
4435;DHT22;46552;52.150;8.428;2022-08-19T02:18:49;19.10;99.90
4435;DHT22;46552;52.150;8.428;2022-08-19T02:21:18;19.00;99.90
4435;DHT22;46552;52.150;8.428;2022-08-19T02:23:45;19.00;99.90
4435;DHT22;46552;52.150;8.428;2022-08-19T02:26:13;18.90;99.90
4435;DHT22;46552;52.150;8.428;2022-08-19T02:28:41;18.90;99.90
4435;DHT22;46552;52.150;8.428;2022-08-19T02:31:10;18.80;99.90
4435;DHT22;46552;52.150;8.428;2022-08-19T02:33:38;18.80;99.90
4435;DHT22;46552;52.150;8.428;2022-08-19T02:36:08;18.70;99.90
4435;DHT22;46552;52.150;8.428;2022-08-19T02:38:36;18.70;99.90
4435;DHT22;46552;52.150;8.428;2022-08-19T02:41:07;18.70;99.90
4435;DHT22;46552;52.150;8.428;2022-08-19T02:43:38;18.70;99.90
4435;DHT22;46552;52.150;8.428;2022-08-19T02:46:12;18.60;99.90
4435;DHT22;46552;52.150;8.428;2022-08-19T02:48:41;18.60;99.90
4435;DHT22;46552;52.150;8.428;2022-08-19T02:51:08;18.60;99.90
4435;DHT22;46552;52.150;8.428;2022-08-19T02:53:35;18.60;99.90
4435;DHT22;46552;52.150;8.428;2022-08-19T02:56:06;18.60;99.90
4435;DHT22;46552;52.150;8.428;2022-08-19T02:58:33;18.50;99.90
4435;DHT22;46552;52.150;8.428;2022-08-19T03:01:01;18.60;99.90
4435;DHT22;46552;52.150;8.428;2022-08-19T03:03:28;18.50;99.90
4435;DHT22;46552;52.150;8.428;2022-08-19T03:06:08;18.50;99.90
4435;DHT22;46552;52.150;8.428;2022-08-19T03:08:36;18.50;99.90
4435;DHT22;46552;52.150;8.428;2022-08-19T03:11:04;18.40;99.90
4435;DHT22;46552;52.150;8.428;2022-08-19T03:13:31;18.50;99.90
4435;DHT22;46552;52.150;8.428;2022-08-19T03:15:58;18.40;99.90
4435;DHT22;46552;52.150;8.428;2022-08-19T03:18:25;18.40;99.90
4435;DHT22;46552;52.150;8.428;2022-08-19T03:20:53;18.40;99.90
4435;DHT22;46552;52.150;8.428;2022-08-19T03:23:22;18.40;99.90
4435;DHT22;46552;52.150;8.428;2022-08-19T03:25:51;18.30;99.90
4435;DHT22;46552;52.150;8.428;2022-08-19T03:28:20;18.30;99.90
4435;DHT22;46552;52.150;8.428;2022-08-19T03:30:58;18.30;99.90
4435;DHT22;46552;52.150;8.428;2022-08-19T03:33:27;18.30;99.90
4435;DHT22;46552;52.150;8.428;2022-08-19T03:36:05;18.30;99.90
4435;DHT22;46552;52.150;8.428;2022-08-19T03:38:35;18.30;99.90
4435;DHT22;46552;52.150;8.428;2022-08-19T03:41:05;18.30;99.90
4435;DHT22;46552;52.150;8.428;2022-08-19T03:43:34;18.30;99.90
4435;DHT22;46552;52.150;8.428;2022-08-19T03:46:03;18.30;99.90
4435;DHT22;46552;52.150;8.428;2022-08-19T03:48:32;18.20;99.90
4435;DHT22;46552;52.150;8.428;2022-08-19T03:51:00;18.20;99.90
4435;DHT22;46552;52.150;8.428;2022-08-19T03:53:28;18.20;99.90
4435;DHT22;46552;52.150;8.428;2022-08-19T03:55:58;18.10;99.90
4435;DHT22;46552;52.150;8.428;2022-08-19T03:58:26;18.10;99.90
4435;DHT22;46552;52.150;8.428;2022-08-19T04:00:54;18.10;99.90
4435;DHT22;46552;52.150;8.428;2022-08-19T04:03:22;18.10;99.90
4435;DHT22;46552;52.150;8.428;2022-08-19T04:05:50;18.10;99.90
4435;DHT22;46552;52.150;8.428;2022-08-19T04:08:18;18.00;99.90
4435;DHT22;46552;52.150;8.428;2022-08-19T04:10:47;18.00;99.90
4435;DHT22;46552;52.150;8.428;2022-08-19T04:13:18;18.10;99.90
4435;DHT22;46552;52.150;8.428;2022-08-19T04:15:45;18.10;99.90
4435;DHT22;46552;52.150;8.428;2022-08-19T04:18:15;18.10;99.90
4435;DHT22;46552;52.150;8.428;2022-08-19T04:20:46;18.10;99.90
4435;DHT22;46552;52.150;8.428;2022-08-19T04:23:14;18.10;99.90
4435;DHT22;46552;52.150;8.428;2022-08-19T04:25:43;18.10;99.90
4435;DHT22;46552;52.150;8.428;2022-08-19T04:28:11;18.00;99.90
4435;DHT22;46552;52.150;8.428;2022-08-19T04:30:44;18.00;99.90
4435;DHT22;46552;52.150;8.428;2022-08-19T04:33:12;18.00;99.90
4435;DHT22;46552;52.150;8.428;2022-08-19T04:35:43;18.10;99.90
4435;DHT22;46552;52.150;8.428;2022-08-19T04:38:13;18.10;99.90
4435;DHT22;46552;52.150;8.428;2022-08-19T04:40:41;18.10;99.90
4435;DHT22;46552;52.150;8.428;2022-08-19T04:43:26;18.10;99.90
4435;DHT22;46552;52.150;8.428;2022-08-19T04:45:56;18.10;99.90
4435;DHT22;46552;52.150;8.428;2022-08-19T04:48:23;18.10;99.90
4435;DHT22;46552;52.150;8.428;2022-08-19T04:50:52;18.10;99.90
4435;DHT22;46552;52.150;8.428;2022-08-19T04:53:23;18.00;99.90
4435;DHT22;46552;52.150;8.428;2022-08-19T04:55:54;18.00;99.90
4435;DHT22;46552;52.150;8.428;2022-08-19T04:58:23;18.00;99.90
4435;DHT22;46552;52.150;8.428;2022-08-19T05:00:51;18.00;99.90
4435;DHT22;46552;52.150;8.428;2022-08-19T05:03:20;18.00;99.90
4435;DHT22;46552;52.150;8.428;2022-08-19T05:05:48;18.00;99.90
4435;DHT22;46552;52.150;8.428;2022-08-19T05:08:17;17.90;99.90
4435;DHT22;46552;52.150;8.428;2022-08-19T05:10:46;17.90;99.90
4435;DHT22;46552;52.150;8.428;2022-08-19T05:13:15;18.00;99.90
4435;DHT22;46552;52.150;8.428;2022-08-19T05:15:43;18.00;99.90
4435;DHT22;46552;52.150;8.428;2022-08-19T05:18:11;18.00;99.90
4435;DHT22;46552;52.150;8.428;2022-08-19T05:20:57;18.00;99.90
4435;DHT22;46552;52.150;8.428;2022-08-19T05:23:41;18.00;99.90
4435;DHT22;46552;52.150;8.428;2022-08-19T05:26:09;18.10;99.90
4435;DHT22;46552;52.150;8.428;2022-08-19T05:28:36;18.10;99.90
4435;DHT22;46552;52.150;8.428;2022-08-19T05:31:04;18.20;99.90
4435;DHT22;46552;52.150;8.428;2022-08-19T05:33:32;18.30;99.90
4435;DHT22;46552;52.150;8.428;2022-08-19T05:36:01;18.30;99.90
4435;DHT22;46552;52.150;8.428;2022-08-19T05:38:28;18.30;99.90
4435;DHT22;46552;52.150;8.428;2022-08-19T05:40:56;18.30;99.90
4435;DHT22;46552;52.150;8.428;2022-08-19T05:43:24;18.30;99.90
4435;DHT22;46552;52.150;8.428;2022-08-19T05:45:52;18.30;99.90
4435;DHT22;46552;52.150;8.428;2022-08-19T05:48:19;18.40;99.90
4435;DHT22;46552;52.150;8.428;2022-08-19T05:50:46;18.50;99.90
4435;DHT22;46552;52.150;8.428;2022-08-19T05:53:17;18.50;99.90
4435;DHT22;46552;52.150;8.428;2022-08-19T05:55:44;18.50;99.90
4435;DHT22;46552;52.150;8.428;2022-08-19T05:58:11;18.50;99.90
4435;DHT22;46552;52.150;8.428;2022-08-19T06:00:38;18.60;99.90
4435;DHT22;46552;52.150;8.428;2022-08-19T06:03:06;18.60;99.90
4435;DHT22;46552;52.150;8.428;2022-08-19T06:05:33;18.70;99.90
4435;DHT22;46552;52.150;8.428;2022-08-19T06:08:01;18.70;99.90
4435;DHT22;46552;52.150;8.428;2022-08-19T06:10:30;18.70;99.90
4435;DHT22;46552;52.150;8.428;2022-08-19T06:12:58;18.70;99.90
4435;DHT22;46552;52.150;8.428;2022-08-19T06:15:25;18.80;99.90
4435;DHT22;46552;52.150;8.428;2022-08-19T06:17:54;18.80;99.90
4435;DHT22;46552;52.150;8.428;2022-08-19T06:20:21;18.80;99.90
4435;DHT22;46552;52.150;8.428;2022-08-19T06:22:49;18.90;99.90
4435;DHT22;46552;52.150;8.428;2022-08-19T06:25:17;18.90;99.90
4435;DHT22;46552;52.150;8.428;2022-08-19T06:27:46;19.00;99.90
4435;DHT22;46552;52.150;8.428;2022-08-19T06:30:13;19.00;99.90
4435;DHT22;46552;52.150;8.428;2022-08-19T06:32:41;19.00;99.90
4435;DHT22;46552;52.150;8.428;2022-08-19T06:35:09;19.10;99.90
4435;DHT22;46552;52.150;8.428;2022-08-19T06:37:36;19.20;99.90
4435;DHT22;46552;52.150;8.428;2022-08-19T06:40:05;19.30;99.90
4435;DHT22;46552;52.150;8.428;2022-08-19T06:42:33;19.40;99.90
4435;DHT22;46552;52.150;8.428;2022-08-19T06:45:02;19.60;99.90
4435;DHT22;46552;52.150;8.428;2022-08-19T06:47:30;19.70;99.90
4435;DHT22;46552;52.150;8.428;2022-08-19T06:49:58;19.90;99.90
4435;DHT22;46552;52.150;8.428;2022-08-19T06:52:27;19.90;99.90
4435;DHT22;46552;52.150;8.428;2022-08-19T06:54:54;20.00;99.90
4435;DHT22;46552;52.150;8.428;2022-08-19T06:57:24;20.20;99.90
4435;DHT22;46552;52.150;8.428;2022-08-19T06:59:52;20.30;99.90
4435;DHT22;46552;52.150;8.428;2022-08-19T07:02:22;20.40;99.90
4435;DHT22;46552;52.150;8.428;2022-08-19T07:04:51;20.50;99.90
4435;DHT22;46552;52.150;8.428;2022-08-19T07:07:19;20.60;99.90
4435;DHT22;46552;52.150;8.428;2022-08-19T07:09:47;20.70;99.90
4435;DHT22;46552;52.150;8.428;2022-08-19T07:12:15;20.80;99.90
4435;DHT22;46552;52.150;8.428;2022-08-19T07:14:43;21.00;99.90
4435;DHT22;46552;52.150;8.428;2022-08-19T07:17:12;21.00;99.90
4435;DHT22;46552;52.150;8.428;2022-08-19T07:19:42;21.10;99.90
4435;DHT22;46552;52.150;8.428;2022-08-19T07:22:10;21.10;99.90
4435;DHT22;46552;52.150;8.428;2022-08-19T07:24:39;21.20;99.90
4435;DHT22;46552;52.150;8.428;2022-08-19T07:27:07;21.30;99.90
4435;DHT22;46552;52.150;8.428;2022-08-19T07:29:36;21.40;99.90
4435;DHT22;46552;52.150;8.428;2022-08-19T07:32:04;21.50;99.90
4435;DHT22;46552;52.150;8.428;2022-08-19T07:34:32;21.60;99.90
4435;DHT22;46552;52.150;8.428;2022-08-19T07:37:03;21.80;99.90
4435;DHT22;46552;52.150;8.428;2022-08-19T07:39:33;22.00;99.90
4435;DHT22;46552;52.150;8.428;2022-08-19T07:42:03;22.10;99.90
4435;DHT22;46552;52.150;8.428;2022-08-19T07:44:33;22.30;99.90
4435;DHT22;46552;52.150;8.428;2022-08-19T07:47:02;22.50;99.90
4435;DHT22;46552;52.150;8.428;2022-08-19T07:49:29;22.70;99.90
4435;DHT22;46552;52.150;8.428;2022-08-19T07:52:00;22.80;99.90
4435;DHT22;46552;52.150;8.428;2022-08-19T07:54:31;22.90;99.90
4435;DHT22;46552;52.150;8.428;2022-08-19T07:57:01;23.10;99.90
4435;DHT22;46552;52.150;8.428;2022-08-19T07:59:29;23.20;99.90
4435;DHT22;46552;52.150;8.428;2022-08-19T08:01:57;23.40;99.90
4435;DHT22;46552;52.150;8.428;2022-08-19T08:04:26;23.60;99.90
4435;DHT22;46552;52.150;8.428;2022-08-19T08:07:11;23.70;99.90
4435;DHT22;46552;52.150;8.428;2022-08-19T08:09:56;23.90;99.90
4435;DHT22;46552;52.150;8.428;2022-08-19T08:12:27;24.10;99.90
4435;DHT22;46552;52.150;8.428;2022-08-19T08:14:59;24.30;99.90
4435;DHT22;46552;52.150;8.428;2022-08-19T08:17:29;24.50;99.90
4435;DHT22;46552;52.150;8.428;2022-08-19T08:19:57;24.60;99.90
4435;DHT22;46552;52.150;8.428;2022-08-19T08:22:25;24.70;99.90
4435;DHT22;46552;52.150;8.428;2022-08-19T08:25:16;24.90;99.90
4435;DHT22;46552;52.150;8.428;2022-08-19T08:27:45;25.20;99.90
4435;DHT22;46552;52.150;8.428;2022-08-19T08:30:14;25.30;99.90
4435;DHT22;46552;52.150;8.428;2022-08-19T08:32:43;25.50;99.90
4435;DHT22;46552;52.150;8.428;2022-08-19T08:35:14;25.60;99.90
4435;DHT22;46552;52.150;8.428;2022-08-19T08:37:42;25.80;99.90
4435;DHT22;46552;52.150;8.428;2022-08-19T08:40:18;25.90;99.90
4435;DHT22;46552;52.150;8.428;2022-08-19T08:42:51;26.10;99.90
4435;DHT22;46552;52.150;8.428;2022-08-19T08:45:24;26.30;99.70
4435;DHT22;46552;52.150;8.428;2022-08-19T08:47:54;26.40;99.40
4435;DHT22;46552;52.150;8.428;2022-08-19T08:50:28;26.50;99.00
4435;DHT22;46552;52.150;8.428;2022-08-19T08:52:57;26.70;98.10
4435;DHT22;46552;52.150;8.428;2022-08-19T08:55:29;26.90;98.00
4435;DHT22;46552;52.150;8.428;2022-08-19T08:58:00;27.20;97.50
4435;DHT22;46552;52.150;8.428;2022-08-19T09:00:31;27.50;97.10
4435;DHT22;46552;52.150;8.428;2022-08-19T09:02:59;27.70;96.40
4435;DHT22;46552;52.150;8.428;2022-08-19T09:05:53;27.90;96.10
4435;DHT22;46552;52.150;8.428;2022-08-19T09:08:33;28.00;95.20
4435;DHT22;46552;52.150;8.428;2022-08-19T09:11:08;28.00;95.00
4435;DHT22;46552;52.150;8.428;2022-08-19T09:13:44;28.10;95.00
4435;DHT22;46552;52.150;8.428;2022-08-19T09:16:18;28.30;94.50
4435;DHT22;46552;52.150;8.428;2022-08-19T09:18:49;28.30;94.30
4435;DHT22;46552;52.150;8.428;2022-08-19T09:21:18;28.40;93.90
4435;DHT22;46552;52.150;8.428;2022-08-19T09:23:46;28.60;93.60
4435;DHT22;46552;52.150;8.428;2022-08-19T09:26:17;28.70;93.10
4435;DHT22;46552;52.150;8.428;2022-08-19T09:28:46;28.90;92.70
4435;DHT22;46552;52.150;8.428;2022-08-19T09:31:16;29.20;92.30
4435;DHT22;46552;52.150;8.428;2022-08-19T09:33:43;29.20;91.70
4435;DHT22;46552;52.150;8.428;2022-08-19T09:36:13;29.30;91.60
4435;DHT22;46552;52.150;8.428;2022-08-19T09:38:42;29.50;91.30
4435;DHT22;46552;52.150;8.428;2022-08-19T09:41:17;29.60;91.00
4435;DHT22;46552;52.150;8.428;2022-08-19T09:43:47;29.50;90.60
4435;DHT22;46552;52.150;8.428;2022-08-19T09:46:15;29.40;90.70
4435;DHT22;46552;52.150;8.428;2022-08-19T09:48:43;29.20;90.40
4435;DHT22;46552;52.150;8.428;2022-08-19T09:51:15;29.20;90.70
4435;DHT22;46552;52.150;8.428;2022-08-19T09:53:46;29.30;90.50
4435;DHT22;46552;52.150;8.428;2022-08-19T09:56:17;29.60;90.30
4435;DHT22;46552;52.150;8.428;2022-08-19T09:58:44;29.70;90.00
4435;DHT22;46552;52.150;8.428;2022-08-19T10:01:16;30.00;88.10
4435;DHT22;46552;52.150;8.428;2022-08-19T10:03:46;30.10;87.10
4435;DHT22;46552;52.150;8.428;2022-08-19T10:06:15;30.50;86.70
4435;DHT22;46552;52.150;8.428;2022-08-19T10:08:43;30.70;85.30
4435;DHT22;46552;52.150;8.428;2022-08-19T10:11:10;30.70;84.80
4435;DHT22;46552;52.150;8.428;2022-08-19T10:13:42;30.60;84.10
4435;DHT22;46552;52.150;8.428;2022-08-19T10:16:12;30.60;84.00
4435;DHT22;46552;52.150;8.428;2022-08-19T10:18:40;30.60;83.30
4435;DHT22;46552;52.150;8.428;2022-08-19T10:21:12;30.80;83.10
4435;DHT22;46552;52.150;8.428;2022-08-19T10:23:41;30.90;82.00
4435;DHT22;46552;52.150;8.428;2022-08-19T10:26:12;30.90;82.00
4435;DHT22;46552;52.150;8.428;2022-08-19T10:28:42;30.90;79.90
4435;DHT22;46552;52.150;8.428;2022-08-19T10:31:11;30.90;79.40
4435;DHT22;46552;52.150;8.428;2022-08-19T10:33:39;30.90;78.60
4435;DHT22;46552;52.150;8.428;2022-08-19T10:36:09;31.10;78.20
4435;DHT22;46552;52.150;8.428;2022-08-19T10:38:36;31.40;77.30
4435;DHT22;46552;52.150;8.428;2022-08-19T10:41:10;31.30;77.40
4435;DHT22;46552;52.150;8.428;2022-08-19T10:43:38;31.20;76.60
4435;DHT22;46552;52.150;8.428;2022-08-19T10:46:07;31.50;76.50
4435;DHT22;46552;52.150;8.428;2022-08-19T10:48:35;31.80;76.00
4435;DHT22;46552;52.150;8.428;2022-08-19T10:51:03;31.80;75.30
4435;DHT22;46552;52.150;8.428;2022-08-19T10:53:48;31.70;74.20
4435;DHT22;46552;52.150;8.428;2022-08-19T10:56:15;31.80;74.40
4435;DHT22;46552;52.150;8.428;2022-08-19T10:59:00;31.90;73.70
4435;DHT22;46552;52.150;8.428;2022-08-19T11:01:30;31.90;73.00
4435;DHT22;46552;52.150;8.428;2022-08-19T11:03:59;32.00;72.40
4435;DHT22;46552;52.150;8.428;2022-08-19T11:06:27;32.30;70.40
4435;DHT22;46552;52.150;8.428;2022-08-19T11:08:56;32.10;70.20
4435;DHT22;46552;52.150;8.428;2022-08-19T11:11:23;32.10;69.20
4435;DHT22;46552;52.150;8.428;2022-08-19T11:13:50;32.30;68.50
4435;DHT22;46552;52.150;8.428;2022-08-19T11:16:20;32.40;68.30
4435;DHT22;46552;52.150;8.428;2022-08-19T11:18:53;32.50;67.80
4435;DHT22;46552;52.150;8.428;2022-08-19T11:21:26;32.60;67.10
4435;DHT22;46552;52.150;8.428;2022-08-19T11:23:56;32.40;67.60
4435;DHT22;46552;52.150;8.428;2022-08-19T11:26:23;32.30;67.70
4435;DHT22;46552;52.150;8.428;2022-08-19T11:28:51;32.30;67.70
4435;DHT22;46552;52.150;8.428;2022-08-19T11:31:21;32.50;67.70
4435;DHT22;46552;52.150;8.428;2022-08-19T11:33:52;32.60;66.80
4435;DHT22;46552;52.150;8.428;2022-08-19T11:36:21;32.80;66.10
4435;DHT22;46552;52.150;8.428;2022-08-19T11:38:49;32.60;66.20
4435;DHT22;46552;52.150;8.428;2022-08-19T11:41:19;32.60;66.00
4435;DHT22;46552;52.150;8.428;2022-08-19T11:43:49;32.40;65.60
4435;DHT22;46552;52.150;8.428;2022-08-19T11:46:18;32.40;65.30
4435;DHT22;46552;52.150;8.428;2022-08-19T11:51:17;33.00;64.20
4435;DHT22;46552;52.150;8.428;2022-08-19T11:53:44;32.90;64.20
4435;DHT22;46552;52.150;8.428;2022-08-19T11:56:12;33.00;64.40
4435;DHT22;46552;52.150;8.428;2022-08-19T11:58:40;33.00;64.10
4435;DHT22;46552;52.150;8.428;2022-08-19T12:01:08;32.90;63.80
4435;DHT22;46552;52.150;8.428;2022-08-19T12:03:37;33.00;64.20
4435;DHT22;46552;52.150;8.428;2022-08-19T12:06:05;33.00;64.10
4435;DHT22;46552;52.150;8.428;2022-08-19T12:08:34;32.90;64.00
4435;DHT22;46552;52.150;8.428;2022-08-19T12:11:03;32.90;63.90
4435;DHT22;46552;52.150;8.428;2022-08-19T12:13:33;32.80;64.90
4435;DHT22;46552;52.150;8.428;2022-08-19T12:16:07;32.80;64.20
4435;DHT22;46552;52.150;8.428;2022-08-19T12:18:35;32.60;63.50
4435;DHT22;46552;52.150;8.428;2022-08-19T12:21:02;32.60;63.80
4435;DHT22;46552;52.150;8.428;2022-08-19T12:23:29;32.50;63.70
4435;DHT22;46552;52.150;8.428;2022-08-19T12:25:57;32.50;63.70
4435;DHT22;46552;52.150;8.428;2022-08-19T12:28:25;32.40;63.90
4435;DHT22;46552;52.150;8.428;2022-08-19T12:30:53;32.30;63.80
4435;DHT22;46552;52.150;8.428;2022-08-19T12:33:23;32.20;63.70
4435;DHT22;46552;52.150;8.428;2022-08-19T12:35:53;32.10;63.40
4435;DHT22;46552;52.150;8.428;2022-08-19T12:38:21;32.10;63.40
4435;DHT22;46552;52.150;8.428;2022-08-19T12:40:50;32.10;63.60
4435;DHT22;46552;52.150;8.428;2022-08-19T12:43:19;32.10;63.40
4435;DHT22;46552;52.150;8.428;2022-08-19T12:45:47;32.00;62.70
4435;DHT22;46552;52.150;8.428;2022-08-19T12:48:14;31.80;63.10
4435;DHT22;46552;52.150;8.428;2022-08-19T12:50:42;31.80;63.50
4435;DHT22;46552;52.150;8.428;2022-08-19T12:53:10;31.90;63.00
4435;DHT22;46552;52.150;8.428;2022-08-19T12:55:37;32.00;62.40
4435;DHT22;46552;52.150;8.428;2022-08-19T12:58:04;32.10;62.10
4435;DHT22;46552;52.150;8.428;2022-08-19T13:00:34;32.20;61.80
4435;DHT22;46552;52.150;8.428;2022-08-19T13:03:01;32.30;61.30
4435;DHT22;46552;52.150;8.428;2022-08-19T13:05:30;32.40;61.40
4435;DHT22;46552;52.150;8.428;2022-08-19T13:07:59;32.40;61.20
4435;DHT22;46552;52.150;8.428;2022-08-19T13:10:28;32.30;61.00
4435;DHT22;46552;52.150;8.428;2022-08-19T13:12:55;32.10;60.90
4435;DHT22;46552;52.150;8.428;2022-08-19T13:15:25;32.00;60.70
4435;DHT22;46552;52.150;8.428;2022-08-19T13:17:57;32.00;60.50
4435;DHT22;46552;52.150;8.428;2022-08-19T13:20:25;32.00;60.40
4435;DHT22;46552;52.150;8.428;2022-08-19T13:22:53;32.00;60.10
4435;DHT22;46552;52.150;8.428;2022-08-19T13:25:23;32.00;59.90
4435;DHT22;46552;52.150;8.428;2022-08-19T13:27:50;32.20;59.80
4435;DHT22;46552;52.150;8.428;2022-08-19T13:30:19;32.40;59.50
4435;DHT22;46552;52.150;8.428;2022-08-19T13:33:05;32.60;59.40
4435;DHT22;46552;52.150;8.428;2022-08-19T13:35:41;32.60;59.20
4435;DHT22;46552;52.150;8.428;2022-08-19T13:38:09;32.40;59.00
4435;DHT22;46552;52.150;8.428;2022-08-19T13:40:36;32.10;59.10
4435;DHT22;46552;52.150;8.428;2022-08-19T13:43:04;32.00;59.40
4435;DHT22;46552;52.150;8.428;2022-08-19T13:45:33;32.00;59.50
4435;DHT22;46552;52.150;8.428;2022-08-19T13:48:02;32.10;59.50
4435;DHT22;46552;52.150;8.428;2022-08-19T13:50:34;32.00;59.30
4435;DHT22;46552;52.150;8.428;2022-08-19T13:53:03;31.90;59.00
4435;DHT22;46552;52.150;8.428;2022-08-19T13:55:30;31.90;59.20
4435;DHT22;46552;52.150;8.428;2022-08-19T13:57:59;31.90;59.40
4435;DHT22;46552;52.150;8.428;2022-08-19T14:00:30;31.90;59.30
4435;DHT22;46552;52.150;8.428;2022-08-19T14:02:58;31.90;59.30
4435;DHT22;46552;52.150;8.428;2022-08-19T14:05:26;32.00;59.10
4435;DHT22;46552;52.150;8.428;2022-08-19T14:07:56;32.00;59.10
4435;DHT22;46552;52.150;8.428;2022-08-19T14:10:24;32.10;58.90
4435;DHT22;46552;52.150;8.428;2022-08-19T14:12:53;32.00;58.70
4435;DHT22;46552;52.150;8.428;2022-08-19T14:15:21;32.00;58.60
4435;DHT22;46552;52.150;8.428;2022-08-19T14:17:49;32.00;58.70
4435;DHT22;46552;52.150;8.428;2022-08-19T14:20:17;32.10;59.50
4435;DHT22;46552;52.150;8.428;2022-08-19T14:22:44;32.10;58.50
4435;DHT22;46552;52.150;8.428;2022-08-19T14:25:16;32.30;58.20
4435;DHT22;46552;52.150;8.428;2022-08-19T14:27:43;32.30;58.00
4435;DHT22;46552;52.150;8.428;2022-08-19T14:30:13;32.40;57.90
4435;DHT22;46552;52.150;8.428;2022-08-19T14:32:41;32.40;57.60
4435;DHT22;46552;52.150;8.428;2022-08-19T14:35:11;32.40;57.50
4435;DHT22;46552;52.150;8.428;2022-08-19T14:37:41;32.30;57.60
4435;DHT22;46552;52.150;8.428;2022-08-19T14:40:09;32.40;57.70
4435;DHT22;46552;52.150;8.428;2022-08-19T14:42:38;32.50;57.80
4435;DHT22;46552;52.150;8.428;2022-08-19T14:45:07;32.60;57.90
4435;DHT22;46552;52.150;8.428;2022-08-19T14:47:35;32.80;57.70
4435;DHT22;46552;52.150;8.428;2022-08-19T14:50:04;32.90;57.30
4435;DHT22;46552;52.150;8.428;2022-08-19T14:52:33;33.00;57.20
4435;DHT22;46552;52.150;8.428;2022-08-19T14:55:00;33.10;57.20
4435;DHT22;46552;52.150;8.428;2022-08-19T14:57:27;33.00;57.10
4435;DHT22;46552;52.150;8.428;2022-08-19T14:59:56;33.00;57.90
4435;DHT22;46552;52.150;8.428;2022-08-19T15:02:24;32.90;57.20
4435;DHT22;46552;52.150;8.428;2022-08-19T15:04:51;32.80;57.20
4435;DHT22;46552;52.150;8.428;2022-08-19T15:07:19;32.60;57.20
4435;DHT22;46552;52.150;8.428;2022-08-19T15:09:49;32.40;57.40
4435;DHT22;46552;52.150;8.428;2022-08-19T15:12:16;32.20;57.70
4435;DHT22;46552;52.150;8.428;2022-08-19T15:14:43;32.00;57.90
4435;DHT22;46552;52.150;8.428;2022-08-19T15:17:17;31.90;58.10
4435;DHT22;46552;52.150;8.428;2022-08-19T15:19:45;31.80;58.40
4435;DHT22;46552;52.150;8.428;2022-08-19T15:22:13;31.80;58.50
4435;DHT22;46552;52.150;8.428;2022-08-19T15:24:40;31.80;58.60
4435;DHT22;46552;52.150;8.428;2022-08-19T15:27:10;31.80;58.60
4435;DHT22;46552;52.150;8.428;2022-08-19T15:29:38;31.80;58.60
4435;DHT22;46552;52.150;8.428;2022-08-19T15:32:06;31.70;58.50
4435;DHT22;46552;52.150;8.428;2022-08-19T15:34:35;31.80;58.30
4435;DHT22;46552;52.150;8.428;2022-08-19T15:37:02;31.80;58.20
4435;DHT22;46552;52.150;8.428;2022-08-19T15:39:31;31.80;58.30
4435;DHT22;46552;52.150;8.428;2022-08-19T15:41:58;31.90;58.30
4435;DHT22;46552;52.150;8.428;2022-08-19T15:44:27;31.90;58.10
4435;DHT22;46552;52.150;8.428;2022-08-19T15:46:55;31.80;57.80
4435;DHT22;46552;52.150;8.428;2022-08-19T15:49:22;31.80;57.70
4435;DHT22;46552;52.150;8.428;2022-08-19T15:51:51;31.80;57.60
4435;DHT22;46552;52.150;8.428;2022-08-19T15:54:22;31.70;57.60
4435;DHT22;46552;52.150;8.428;2022-08-19T15:56:50;31.60;57.80
4435;DHT22;46552;52.150;8.428;2022-08-19T15:59:36;31.50;57.90
4435;DHT22;46552;52.150;8.428;2022-08-19T16:02:24;31.50;58.00